createdAt,value
2018-12-15T00:00:20.630Z,1015.97
2018-12-15T00:01:20.584Z,1015.83
2018-12-15T00:02:20.547Z,1015.94
2018-12-15T00:03:20.503Z,1015.99
2018-12-15T00:04:20.463Z,1015.96
2018-12-15T00:05:20.424Z,1015.99
2018-12-15T00:06:20.378Z,1015.94
2018-12-15T00:07:20.342Z,1015.96
2018-12-15T00:08:20.301Z,1015.95
2018-12-15T00:09:20.263Z,1015.92
2018-12-15T00:10:20.224Z,1015.94
2018-12-15T00:11:20.180Z,1015.96
2018-12-15T00:12:20.145Z,1015.92
2018-12-15T00:13:20.099Z,1015.99
2018-12-15T00:14:20.057Z,1016.00
2018-12-15T00:15:20.017Z,1016.04
2018-12-15T00:16:19.977Z,1016.03
2018-12-15T00:17:19.933Z,1016.03
2018-12-15T00:18:19.897Z,1016.01
2018-12-15T00:19:19.860Z,1016.04
2018-12-15T00:20:19.817Z,1016.01
2018-12-15T00:21:19.776Z,1016.03
2018-12-15T00:22:19.734Z,1016.04
2018-12-15T00:23:19.940Z,1016.00
2018-12-15T00:24:19.658Z,1016.06
2018-12-15T00:25:19.613Z,1016.00
2018-12-15T00:26:19.574Z,1015.90
2018-12-15T00:27:19.532Z,1016.00
2018-12-15T00:28:19.498Z,1016.01
2018-12-15T00:29:19.451Z,1016.04
2018-12-15T00:30:19.405Z,1016.07
2018-12-15T00:31:19.368Z,1016.06
2018-12-15T00:32:19.329Z,1016.08
2018-12-15T00:33:19.292Z,1016.06
2018-12-15T00:34:19.248Z,1016.06
2018-12-15T00:35:19.222Z,1016.04
2018-12-15T00:36:19.172Z,1016.11
2018-12-15T00:37:19.125Z,1016.07
2018-12-15T00:38:19.083Z,1016.04
2018-12-15T00:39:19.048Z,1016.05
2018-12-15T00:40:19.008Z,1016.06
2018-12-15T00:41:18.967Z,1016.12
2018-12-15T00:42:18.926Z,1016.10
2018-12-15T00:43:18.880Z,1016.15
2018-12-15T00:44:18.843Z,1016.11
2018-12-15T00:45:18.802Z,1016.13
2018-12-15T00:46:18.764Z,1016.16
2018-12-15T00:47:18.721Z,1016.18
2018-12-15T00:48:18.684Z,1016.15
2018-12-15T00:49:18.640Z,1016.17
2018-12-15T00:50:18.595Z,1016.17
2018-12-15T00:51:18.584Z,1016.09
2018-12-15T00:52:18.519Z,1016.15
2018-12-15T00:53:18.475Z,1016.15
2018-12-15T00:54:18.437Z,1016.21
2018-12-15T00:55:18.431Z,1016.24
2018-12-15T00:56:18.358Z,1016.25
2018-12-15T00:57:18.313Z,1016.26
2018-12-15T00:58:18.275Z,1016.14
2018-12-15T00:59:18.245Z,1016.25
2018-12-15T01:00:18.193Z,1016.28
2018-12-15T01:01:18.152Z,1016.22
2018-12-15T01:02:18.113Z,1016.34
2018-12-15T01:03:18.071Z,1016.33
2018-12-15T01:04:18.055Z,1016.28
2018-12-15T01:05:18.666Z,1016.34
2018-12-15T01:06:17.949Z,1016.36
2018-12-15T01:07:17.909Z,1016.27
2018-12-15T01:08:17.866Z,1016.41
2018-12-15T01:09:17.827Z,1016.41
2018-12-15T01:10:17.785Z,1016.49
2018-12-15T01:11:17.747Z,1016.52
2018-12-15T01:12:17.713Z,1016.43
2018-12-15T01:13:17.765Z,1016.51
2018-12-15T01:14:17.620Z,1016.56
2018-12-15T01:15:17.584Z,1016.54
2018-12-15T01:16:17.544Z,1016.55
2018-12-15T01:17:20.462Z,1016.67
2018-12-15T01:18:17.460Z,1016.59
2018-12-15T01:19:17.415Z,1016.55
2018-12-15T01:20:17.377Z,1016.53
2018-12-15T01:21:17.356Z,1016.65
2018-12-15T01:22:17.323Z,1016.63
2018-12-15T01:23:17.257Z,1016.70
2018-12-15T01:24:17.217Z,1016.64
2018-12-15T01:25:17.176Z,1016.68
2018-12-15T01:26:17.140Z,1016.65
2018-12-15T01:27:17.110Z,1016.75
2018-12-15T01:28:17.059Z,1016.73
2018-12-15T01:29:17.013Z,1016.82
2018-12-15T01:30:16.973Z,1016.83
2018-12-15T01:31:16.932Z,1016.84
2018-12-15T01:32:16.891Z,1016.86
2018-12-15T01:33:16.852Z,1016.84
2018-12-15T01:34:16.811Z,1016.82
2018-12-15T01:35:16.770Z,1016.83
2018-12-15T01:36:16.752Z,1016.80
2018-12-15T01:37:16.692Z,1016.83
2018-12-15T01:38:16.647Z,1016.79
2018-12-15T01:39:16.603Z,1016.87
2018-12-15T01:40:16.623Z,1016.89
2018-12-15T01:41:16.526Z,1016.86
2018-12-15T01:42:16.488Z,1016.87
2018-12-15T01:43:16.438Z,1016.90
2018-12-15T01:44:16.408Z,1016.81
2018-12-15T01:45:16.366Z,1016.80
2018-12-15T01:46:16.320Z,1016.87
2018-12-15T01:47:16.277Z,1016.89
2018-12-15T01:48:16.677Z,1016.88
2018-12-15T01:49:16.199Z,1016.87
2018-12-15T01:50:16.193Z,1016.89
2018-12-15T01:51:16.143Z,1016.85
2018-12-15T01:52:16.094Z,1016.86
2018-12-15T01:53:16.042Z,1016.88
2018-12-15T01:54:16.001Z,1016.87
2018-12-15T01:55:16.354Z,1016.94
2018-12-15T01:56:15.916Z,1016.92
2018-12-15T01:57:15.878Z,1016.96
2018-12-15T01:58:16.744Z,1016.96
2018-12-15T01:59:15.793Z,1016.95
2018-12-15T02:00:15.751Z,1016.84
2018-12-15T02:01:15.713Z,1016.93
2018-12-15T02:02:15.670Z,1016.95
2018-12-15T02:03:15.638Z,1016.94
2018-12-15T02:04:15.587Z,1016.91
2018-12-15T02:05:15.557Z,1016.93
2018-12-15T02:06:15.508Z,1016.99
2018-12-15T02:07:15.491Z,1016.92
2018-12-15T02:08:15.443Z,1017.00
2018-12-15T02:09:15.386Z,1017.01
2018-12-15T02:10:15.344Z,1016.98
2018-12-15T02:11:15.305Z,1016.95
2018-12-15T02:12:15.262Z,1016.93
2018-12-15T02:13:15.215Z,1017.00
2018-12-15T02:14:15.177Z,1016.95
2018-12-15T02:15:15.160Z,1017.03
2018-12-15T02:16:15.110Z,1016.97
2018-12-15T02:17:15.060Z,1017.02
2018-12-15T02:18:15.015Z,1016.97
2018-12-15T02:19:14.975Z,1017.00
2018-12-15T02:20:14.935Z,1016.94
2018-12-15T02:21:14.946Z,1016.94
2018-12-15T02:22:14.851Z,1016.97
2018-12-15T02:23:14.822Z,1016.94
2018-12-15T02:24:14.843Z,1016.84
2018-12-15T02:25:14.729Z,1016.93
2018-12-15T02:26:14.694Z,1016.96
2018-12-15T02:27:14.653Z,1016.91
2018-12-15T02:28:14.612Z,1016.88
2018-12-15T02:29:14.567Z,1016.89
2018-12-15T02:30:14.529Z,1016.83
2018-12-15T02:31:14.483Z,1016.84
2018-12-15T02:32:14.445Z,1016.88
2018-12-15T02:33:14.405Z,1016.87
2018-12-15T02:34:14.363Z,1016.83
2018-12-15T02:35:14.332Z,1016.75
2018-12-15T02:36:14.281Z,1016.81
2018-12-15T02:37:14.245Z,1016.80
2018-12-15T02:38:14.198Z,1016.80
2018-12-15T02:39:14.158Z,1016.81
2018-12-15T02:40:14.119Z,1016.84
2018-12-15T02:41:14.953Z,1016.76
2018-12-15T02:42:14.038Z,1016.82
2018-12-15T02:43:13.998Z,1016.75
2018-12-15T02:44:13.957Z,1016.71
2018-12-15T02:45:13.917Z,1016.59
2018-12-15T02:46:13.873Z,1016.73
2018-12-15T02:47:13.833Z,1016.67
2018-12-15T02:48:13.792Z,1016.76
2018-12-15T02:49:13.747Z,1016.65
2018-12-15T02:50:13.715Z,1016.69
2018-12-15T02:51:13.667Z,1016.62
2018-12-15T02:52:13.629Z,1016.52
2018-12-15T02:53:13.594Z,1016.59
2018-12-15T02:54:13.545Z,1016.65
2018-12-15T02:55:13.508Z,1016.63
2018-12-15T02:56:13.465Z,1016.63
2018-12-15T02:57:13.422Z,1016.62
2018-12-15T02:58:13.382Z,1016.58
2018-12-15T02:59:13.340Z,1016.56
2018-12-15T03:00:13.315Z,1016.57
2018-12-15T03:01:13.262Z,1016.53
2018-12-15T03:02:13.216Z,1016.58
2018-12-15T03:03:13.203Z,1016.58
2018-12-15T03:04:13.139Z,1016.52
2018-12-15T03:05:13.092Z,1016.55
2018-12-15T03:06:13.056Z,1016.59
2018-12-15T03:07:13.014Z,1016.52
2018-12-15T03:08:12.977Z,1016.52
2018-12-15T03:09:12.931Z,1016.53
2018-12-15T03:10:12.893Z,1016.50
2018-12-15T03:11:12.858Z,1016.51
2018-12-15T03:12:12.810Z,1016.56
2018-12-15T03:13:12.770Z,1016.54
2018-12-15T03:14:12.730Z,1016.57
2018-12-15T03:15:12.688Z,1016.46
2018-12-15T03:16:12.649Z,1016.49
2018-12-15T03:17:12.605Z,1016.51
2018-12-15T03:18:12.562Z,1016.48
2018-12-15T03:19:12.528Z,1016.49
2018-12-15T03:20:12.485Z,1016.47
2018-12-15T03:21:12.445Z,1016.47
2018-12-15T03:22:12.398Z,1016.44
2018-12-15T03:23:12.360Z,1016.48
2018-12-15T03:24:12.316Z,1016.45
2018-12-15T03:25:12.277Z,1016.50
2018-12-15T03:26:12.240Z,1016.41
2018-12-15T03:27:12.194Z,1016.45
2018-12-15T03:28:12.159Z,1016.37
2018-12-15T03:29:12.133Z,1016.47
2018-12-15T03:30:12.074Z,1016.43
2018-12-15T03:31:12.034Z,1016.41
2018-12-15T03:32:11.995Z,1016.43
2018-12-15T03:33:11.951Z,1016.41
2018-12-15T03:34:12.002Z,1016.43
2018-12-15T03:35:11.870Z,1016.42
2018-12-15T03:36:11.825Z,1016.41
2018-12-15T03:37:11.785Z,1016.38
2018-12-15T03:38:11.747Z,1016.39
2018-12-15T03:39:11.704Z,1016.37
2018-12-15T03:40:11.666Z,1016.33
2018-12-15T03:41:11.640Z,1016.30
2018-12-15T03:42:11.578Z,1016.39
2018-12-15T03:43:11.538Z,1016.31
2018-12-15T03:44:11.516Z,1016.27
2018-12-15T03:45:11.473Z,1016.32
2018-12-15T03:46:11.415Z,1016.26
2018-12-15T03:47:12.003Z,1016.30
2018-12-15T03:48:11.337Z,1016.31
2018-12-15T03:49:11.298Z,1016.32
2018-12-15T03:50:11.253Z,1016.39
2018-12-15T03:51:11.205Z,1016.37
2018-12-15T03:52:11.175Z,1016.37
2018-12-15T03:53:11.843Z,1016.33
2018-12-15T03:54:11.091Z,1016.34
2018-12-15T03:55:11.043Z,1016.34
2018-12-15T03:56:11.030Z,1016.33
2018-12-15T03:57:11.023Z,1016.32
2018-12-15T03:58:10.982Z,1016.27
2018-12-15T03:59:10.887Z,1016.37
2018-12-15T04:00:11.388Z,1016.39
2018-12-15T04:01:10.806Z,1016.37
2018-12-15T04:02:10.764Z,1016.33
2018-12-15T04:03:10.715Z,1016.34
2018-12-15T04:04:10.724Z,1016.30
2018-12-15T04:05:10.640Z,1016.29
2018-12-15T04:06:10.597Z,1016.32
2018-12-15T04:07:10.561Z,1016.31
2018-12-15T04:08:10.511Z,1016.26
2018-12-15T04:09:10.477Z,1016.35
2018-12-15T04:10:10.436Z,1016.28
2018-12-15T04:11:10.395Z,1016.31
2018-12-15T04:12:10.355Z,1016.30
2018-12-15T04:13:10.331Z,1016.28
2018-12-15T04:14:10.275Z,1016.27
2018-12-15T04:15:10.231Z,1016.31
2018-12-15T04:16:10.191Z,1016.25
2018-12-15T04:17:10.154Z,1016.21
2018-12-15T04:18:10.113Z,1016.32
2018-12-15T04:19:10.081Z,1016.27
2018-12-15T04:20:10.026Z,1016.27
2018-12-15T04:21:10.081Z,1016.23
2018-12-15T04:22:09.944Z,1016.21
2018-12-15T04:23:09.907Z,1016.21
2018-12-15T04:24:09.860Z,1016.21
2018-12-15T04:25:09.822Z,1016.29
2018-12-15T04:26:09.792Z,1016.20
2018-12-15T04:27:09.733Z,1016.27
2018-12-15T04:28:09.700Z,1016.25
2018-12-15T04:29:09.653Z,1016.24
2018-12-15T04:30:09.615Z,1016.22
2018-12-15T04:31:09.573Z,1016.25
2018-12-15T04:32:09.534Z,1016.20
2018-12-15T04:33:09.492Z,1016.20
2018-12-15T04:34:09.448Z,1016.25
2018-12-15T04:35:09.414Z,1016.29
2018-12-15T04:36:09.370Z,1016.22
2018-12-15T04:37:09.328Z,1016.23
2018-12-15T04:38:09.293Z,1016.24
2018-12-15T04:39:09.249Z,1016.31
2018-12-15T04:40:09.206Z,1016.28
2018-12-15T04:41:09.167Z,1016.29
2018-12-15T04:42:09.125Z,1016.29
2018-12-15T04:43:09.086Z,1016.26
2018-12-15T04:44:09.054Z,1016.33
2018-12-15T04:45:08.996Z,1016.30
2018-12-15T04:46:08.961Z,1016.29
2018-12-15T04:47:08.937Z,1016.35
2018-12-15T04:48:11.269Z,1016.27
2018-12-15T04:49:08.860Z,1016.31
2018-12-15T04:50:08.799Z,1016.32
2018-12-15T04:51:08.778Z,1016.30
2018-12-15T04:52:08.719Z,1016.25
2018-12-15T04:53:08.672Z,1016.31
2018-12-15T04:54:08.632Z,1016.31
2018-12-15T04:55:08.593Z,1016.29
2018-12-15T04:56:08.573Z,1016.31
2018-12-15T04:57:08.508Z,1016.31
2018-12-15T04:58:08.471Z,1016.23
2018-12-15T04:59:08.427Z,1016.29
2018-12-15T05:00:08.384Z,1016.32
2018-12-15T05:01:08.346Z,1016.30
2018-12-15T05:02:08.305Z,1016.25
2018-12-15T05:03:08.263Z,1016.29
2018-12-15T05:04:08.218Z,1016.30
2018-12-15T05:05:08.179Z,1016.28
2018-12-15T05:06:08.139Z,1016.29
2018-12-15T05:07:08.098Z,1016.25
2018-12-15T05:08:08.067Z,1016.29
2018-12-15T05:09:08.040Z,1016.28
2018-12-15T05:10:07.974Z,1016.31
2018-12-15T05:11:07.936Z,1016.26
2018-12-15T05:12:07.896Z,1016.27
2018-12-15T05:13:07.860Z,1016.27
2018-12-15T05:14:07.814Z,1016.23
2018-12-15T05:15:07.777Z,1016.23
2018-12-15T05:16:07.737Z,1016.24
2018-12-15T05:17:07.760Z,1016.18
2018-12-15T05:18:07.675Z,1016.24
2018-12-15T05:19:07.606Z,1016.15
2018-12-15T05:20:07.595Z,1016.18
2018-12-15T05:21:07.520Z,1016.20
2018-12-15T05:22:07.486Z,1016.14
2018-12-15T05:23:07.445Z,1016.22
2018-12-15T05:24:07.415Z,1016.17
2018-12-15T05:25:07.366Z,1016.23
2018-12-15T05:26:07.332Z,1016.14
2018-12-15T05:27:07.282Z,1016.15
2018-12-15T05:28:07.243Z,1016.14
2018-12-15T05:29:07.205Z,1016.08
2018-12-15T05:30:07.158Z,1016.17
2018-12-15T05:31:07.118Z,1016.09
2018-12-15T05:32:07.077Z,1016.20
2018-12-15T05:33:07.037Z,1016.16
2018-12-15T05:34:06.998Z,1016.19
2018-12-15T05:35:06.958Z,1016.18
2018-12-15T05:36:06.917Z,1016.17
2018-12-15T05:37:06.873Z,1016.16
2018-12-15T05:38:06.850Z,1016.13
2018-12-15T05:39:06.784Z,1016.06
2018-12-15T05:40:06.748Z,1016.14
2018-12-15T05:41:06.714Z,1016.13
2018-12-15T05:42:06.671Z,1016.16
2018-12-15T05:43:06.942Z,1016.12
2018-12-15T05:44:06.613Z,1016.14
2018-12-15T05:45:06.546Z,1016.14
2018-12-15T05:46:06.513Z,1016.16
2018-12-15T05:47:06.489Z,1016.16
2018-12-15T05:48:06.423Z,1015.96
2018-12-15T05:49:06.382Z,1016.15
2018-12-15T05:50:06.342Z,1016.19
2018-12-15T05:51:06.309Z,1016.14
2018-12-15T05:52:06.260Z,1016.13
2018-12-15T05:53:06.211Z,1016.17
2018-12-15T05:54:06.177Z,1016.07
2018-12-15T05:55:06.194Z,1016.06
2018-12-15T05:56:06.095Z,1016.03
2018-12-15T05:57:06.066Z,1016.23
2018-12-15T05:58:06.023Z,1016.13
2018-12-15T05:59:05.974Z,1016.18
2018-12-15T06:00:05.938Z,1016.17
2018-12-15T06:01:05.920Z,1016.17
2018-12-15T06:02:05.851Z,1016.08
2018-12-15T06:03:05.846Z,1016.17
2018-12-15T06:04:05.784Z,1016.14
2018-12-15T06:05:05.745Z,1016.25
2018-12-15T06:06:05.689Z,1016.24
2018-12-15T06:07:05.725Z,1016.26
2018-12-15T06:08:05.607Z,1016.20
2018-12-15T06:09:05.566Z,1016.18
2018-12-15T06:10:05.525Z,1016.22
2018-12-15T06:11:05.484Z,1016.24
2018-12-15T06:12:05.455Z,1016.22
2018-12-15T06:13:05.401Z,1016.27
2018-12-15T06:14:05.381Z,1016.28
2018-12-15T06:15:05.333Z,1016.24
2018-12-15T06:16:05.277Z,1016.25
2018-12-15T06:17:05.240Z,1016.18
2018-12-15T06:18:05.197Z,1016.26
2018-12-15T06:19:05.690Z,1016.29
2018-12-15T06:20:05.116Z,1016.21
2018-12-15T06:21:05.075Z,1016.23
2018-12-15T06:22:05.036Z,1016.34
2018-12-15T06:23:05.006Z,1016.36
2018-12-15T06:24:04.960Z,1016.35
2018-12-15T06:25:04.953Z,1016.38
2018-12-15T06:26:04.882Z,1016.31
2018-12-15T06:27:04.831Z,1016.31
2018-12-15T06:28:04.791Z,1016.32
2018-12-15T06:29:04.748Z,1016.34
2018-12-15T06:30:04.706Z,1016.30
2018-12-15T06:31:04.667Z,1016.38
2018-12-15T06:32:04.626Z,1016.34
2018-12-15T06:33:04.925Z,1016.41
2018-12-15T06:34:04.561Z,1016.36
2018-12-15T06:35:04.503Z,1016.33
2018-12-15T06:36:04.464Z,1016.39
2018-12-15T06:37:04.419Z,1016.36
2018-12-15T06:38:05.125Z,1016.31
2018-12-15T06:39:04.346Z,1016.35
2018-12-15T06:40:04.293Z,1016.36
2018-12-15T06:41:04.257Z,1016.28
2018-12-15T06:42:04.217Z,1016.35
2018-12-15T06:43:04.177Z,1016.31
2018-12-15T06:44:04.137Z,1016.31
2018-12-15T06:45:04.090Z,1016.32
2018-12-15T06:46:04.054Z,1016.34
2018-12-15T06:47:04.013Z,1016.34
2018-12-15T06:48:03.975Z,1016.28
2018-12-15T06:49:03.928Z,1016.32
2018-12-15T06:50:03.891Z,1016.31
2018-12-15T06:51:03.851Z,1016.35
2018-12-15T06:52:03.810Z,1016.32
2018-12-15T06:53:03.766Z,1016.26
2018-12-15T06:54:03.730Z,1016.28
2018-12-15T06:55:03.686Z,1016.30
2018-12-15T06:56:03.913Z,1016.28
2018-12-15T06:57:03.604Z,1016.28
2018-12-15T06:58:03.562Z,1016.28
2018-12-15T06:59:03.520Z,1016.28
2018-12-15T07:00:03.484Z,1016.27
2018-12-15T07:01:03.439Z,1016.20
2018-12-15T07:02:03.648Z,1016.23
2018-12-15T07:03:03.357Z,1016.12
2018-12-15T07:04:03.318Z,1016.10
2018-12-15T07:05:03.275Z,1016.15
2018-12-15T07:06:03.244Z,1016.14
2018-12-15T07:07:03.191Z,1016.14
2018-12-15T07:08:03.157Z,1016.08
2018-12-15T07:09:03.204Z,1016.06
2018-12-15T07:10:03.072Z,1016.11
2018-12-15T07:11:03.030Z,1016.02
2018-12-15T07:12:02.989Z,1016.06
2018-12-15T07:13:02.948Z,1016.10
2018-12-15T07:14:02.911Z,1016.08
2018-12-15T07:15:02.993Z,1016.11
2018-12-15T07:16:02.823Z,1016.15
2018-12-15T07:17:02.784Z,1016.10
2018-12-15T07:18:02.742Z,1016.12
2018-12-15T07:19:02.701Z,1016.07
2018-12-15T07:20:02.660Z,1016.04
2018-12-15T07:21:02.618Z,1016.01
2018-12-15T07:22:02.579Z,1016.02
2018-12-15T07:23:02.537Z,1016.04
2018-12-15T07:24:02.494Z,1016.11
2018-12-15T07:25:02.454Z,1016.01
2018-12-15T07:26:02.412Z,1016.05
2018-12-15T07:27:02.373Z,1016.05
2018-12-15T07:28:02.333Z,1016.05
2018-12-15T07:29:02.293Z,1016.11
2018-12-15T07:30:02.248Z,1016.00
2018-12-15T07:31:02.210Z,1016.06
2018-12-15T07:32:02.214Z,1015.99
2018-12-15T07:33:02.125Z,1016.06
2018-12-15T07:34:02.086Z,1016.04
2018-12-15T07:35:02.044Z,1016.08
2018-12-15T07:36:02.003Z,1016.13
2018-12-15T07:37:01.963Z,1016.05
2018-12-15T07:38:01.925Z,1016.11
2018-12-15T07:39:01.879Z,1016.09
2018-12-15T07:40:01.842Z,1016.09
2018-12-15T07:41:01.800Z,1016.06
2018-12-15T07:42:01.758Z,1016.05
2018-12-15T07:43:01.716Z,1016.09
2018-12-15T07:44:01.692Z,1016.11
2018-12-15T07:45:01.647Z,1016.08
2018-12-15T07:46:01.592Z,1016.14
2018-12-15T07:47:01.551Z,1016.16
2018-12-15T07:48:01.509Z,1016.19
2018-12-15T07:49:01.473Z,1016.19
2018-12-15T07:50:01.432Z,1016.15
2018-12-15T07:51:01.387Z,1016.21
2018-12-15T07:52:01.349Z,1016.19
2018-12-15T07:53:01.308Z,1016.18
2018-12-15T07:54:01.265Z,1016.20
2018-12-15T07:55:01.225Z,1016.10
2018-12-15T07:56:01.183Z,1016.23
2018-12-15T07:57:01.148Z,1016.26
2018-12-15T07:58:01.098Z,1016.27
2018-12-15T07:59:01.058Z,1016.22
2018-12-15T08:00:01.020Z,1016.30
2018-12-15T08:01:00.976Z,1016.30
2018-12-15T08:02:00.934Z,1016.28
2018-12-15T08:03:00.899Z,1016.21
2018-12-15T08:04:00.858Z,1016.23
2018-12-15T08:05:01.253Z,1016.15
2018-12-15T08:06:00.777Z,1016.27
2018-12-15T08:07:00.733Z,1016.26
2018-12-15T08:08:00.682Z,1016.24
2018-12-15T08:09:00.651Z,1016.23
2018-12-15T08:10:00.610Z,1016.25
2018-12-15T08:11:00.569Z,1016.24
2018-12-15T08:12:00.530Z,1016.26
2018-12-15T08:13:00.489Z,1016.30
2018-12-15T08:14:00.446Z,1016.23
2018-12-15T08:15:00.411Z,1016.24
2018-12-15T08:16:00.365Z,1016.26
2018-12-15T08:17:00.329Z,1016.18
2018-12-15T08:18:00.283Z,1016.28
2018-12-15T08:19:00.727Z,1016.25
2018-12-15T08:20:00.202Z,1016.19
2018-12-15T08:21:00.159Z,1016.23
2018-12-15T08:22:00.125Z,1016.24
2018-12-15T08:23:00.077Z,1016.09
2018-12-15T08:24:00.036Z,1016.29
2018-12-15T08:24:59.991Z,1016.32
2018-12-15T08:25:59.955Z,1016.30
2018-12-15T08:26:59.913Z,1016.27
2018-12-15T08:27:59.870Z,1016.28
2018-12-15T08:28:59.832Z,1016.25
2018-12-15T08:29:59.793Z,1016.21
2018-12-15T08:30:59.748Z,1016.30
2018-12-15T08:31:59.709Z,1016.13
2018-12-15T08:32:59.671Z,1016.22
2018-12-15T08:33:59.627Z,1016.31
2018-12-15T08:34:59.584Z,1016.27
2018-12-15T08:35:59.545Z,1016.36
2018-12-15T08:36:59.496Z,1016.34
2018-12-15T08:37:59.464Z,1016.28
2018-12-15T08:38:59.426Z,1016.36
2018-12-15T08:39:59.447Z,1016.33
2018-12-15T08:40:59.342Z,1016.35
2018-12-15T08:41:59.303Z,1016.36
2018-12-15T08:42:59.261Z,1016.35
2018-12-15T08:43:59.216Z,1016.39
2018-12-15T08:44:59.179Z,1016.36
2018-12-15T08:45:59.136Z,1016.37
2018-12-15T08:46:59.095Z,1016.38
2018-12-15T08:47:59.058Z,1016.34
2018-12-15T08:49:04.505Z,1016.32
2018-12-15T08:49:58.969Z,1016.36
2018-12-15T08:50:58.934Z,1016.37
2018-12-15T08:51:58.893Z,1016.29
2018-12-15T08:52:58.852Z,1016.27
2018-12-15T08:53:58.811Z,1016.24
2018-12-15T08:54:58.772Z,1016.27
2018-12-15T08:55:58.733Z,1016.25
2018-12-15T08:56:58.688Z,1016.29
2018-12-15T08:57:58.647Z,1016.27
2018-12-15T08:58:58.622Z,1016.29
2018-12-15T08:59:58.565Z,1016.35
2018-12-15T09:00:58.536Z,1016.32
2018-12-15T09:01:58.484Z,1016.31
2018-12-15T09:02:58.444Z,1016.25
2018-12-15T09:03:58.404Z,1016.41
2018-12-15T09:04:58.363Z,1016.43
2018-12-15T09:05:58.322Z,1016.26
2018-12-15T09:06:58.281Z,1016.48
2018-12-15T09:07:58.238Z,1016.29
2018-12-15T09:08:58.202Z,1016.34
2018-12-15T09:09:58.159Z,1016.26
2018-12-15T09:10:58.116Z,1016.34
2018-12-15T09:11:58.081Z,1016.33
2018-12-15T09:12:58.037Z,1016.42
2018-12-15T09:13:57.995Z,1016.48
2018-12-15T09:14:57.953Z,1016.45
2018-12-15T09:15:57.915Z,1016.45
2018-12-15T09:16:57.870Z,1016.42
2018-12-15T09:17:57.828Z,1016.40
2018-12-15T09:18:57.788Z,1016.42
2018-12-15T09:19:57.750Z,1016.46
2018-12-15T09:20:57.709Z,1016.40
2018-12-15T09:21:57.666Z,1016.42
2018-12-15T09:22:57.627Z,1016.46
2018-12-15T09:23:57.594Z,1016.43
2018-12-15T09:24:57.544Z,1016.54
2018-12-15T09:25:57.503Z,1016.42
2018-12-15T09:26:57.467Z,1016.53
2018-12-15T09:27:57.424Z,1016.46
2018-12-15T09:28:57.383Z,1016.50
2018-12-15T09:29:57.341Z,1016.41
2018-12-15T09:30:57.301Z,1016.42
2018-12-15T09:31:57.258Z,1016.46
2018-12-15T09:32:57.216Z,1016.44
2018-12-15T09:33:57.178Z,1016.44
2018-12-15T09:34:57.136Z,1016.53
2018-12-15T09:35:57.098Z,1016.45
2018-12-15T09:36:57.057Z,1016.46
2018-12-15T09:37:57.017Z,1016.48
2018-12-15T09:38:56.973Z,1016.48
2018-12-15T09:39:56.935Z,1016.47
2018-12-15T09:40:56.892Z,1016.44
2018-12-15T09:41:56.853Z,1016.50
2018-12-15T09:42:56.808Z,1016.49
2018-12-15T09:43:56.772Z,1016.42
2018-12-15T09:44:56.731Z,1016.50
2018-12-15T09:45:56.689Z,1016.46
2018-12-15T09:46:56.652Z,1016.45
2018-12-15T09:47:56.846Z,1016.43
2018-12-15T09:48:56.566Z,1016.36
2018-12-15T09:49:56.525Z,1016.41
2018-12-15T09:50:56.486Z,1016.46
2018-12-15T09:51:56.438Z,1016.41
2018-12-15T09:52:56.440Z,1016.30
2018-12-15T09:53:56.365Z,1016.31
2018-12-15T09:54:56.323Z,1016.33
2018-12-15T09:55:56.283Z,1016.33
2018-12-15T09:56:56.243Z,1016.28
2018-12-15T09:57:56.203Z,1016.23
2018-12-15T09:58:56.203Z,1016.13
2018-12-15T09:59:56.122Z,1016.17
2018-12-15T10:00:56.078Z,1016.22
2018-12-15T10:01:56.030Z,1016.16
2018-12-15T10:02:56.030Z,1016.17
2018-12-15T10:03:55.957Z,1016.18
2018-12-15T10:04:55.918Z,1016.19
2018-12-15T10:05:55.877Z,1016.24
2018-12-15T10:06:55.849Z,1016.14
2018-12-15T10:07:55.800Z,1016.19
2018-12-15T10:08:55.756Z,1016.24
2018-12-15T10:09:55.713Z,1016.28
2018-12-15T10:10:55.676Z,1016.28
2018-12-15T10:11:55.633Z,1016.26
2018-12-15T10:12:55.594Z,1016.27
2018-12-15T10:13:55.553Z,1016.25
2018-12-15T10:14:55.509Z,1016.27
2018-12-15T10:15:55.470Z,1016.22
2018-12-15T10:16:55.429Z,1016.12
2018-12-15T10:17:55.390Z,1016.10
2018-12-15T10:18:55.348Z,1016.14
2018-12-15T10:19:55.307Z,1016.13
2018-12-15T10:20:55.265Z,1016.03
2018-12-15T10:21:55.227Z,1016.08
2018-12-15T10:22:55.187Z,1016.06
2018-12-15T10:23:55.148Z,1015.96
2018-12-15T10:24:55.104Z,1015.98
2018-12-15T10:25:55.072Z,1016.00
2018-12-15T10:26:55.025Z,1015.95
2018-12-15T10:27:54.988Z,1015.95
2018-12-15T10:28:55.356Z,1015.91
2018-12-15T10:29:54.904Z,1015.86
2018-12-15T10:30:54.864Z,1015.79
2018-12-15T10:31:54.821Z,1015.83
2018-12-15T10:32:54.782Z,1015.86
2018-12-15T10:33:54.739Z,1015.87
2018-12-15T10:34:54.701Z,1015.78
2018-12-15T10:35:54.661Z,1015.77
2018-12-15T10:36:54.623Z,1015.73
2018-12-15T10:37:54.642Z,1015.63
2018-12-15T10:38:54.540Z,1015.69
2018-12-15T10:39:54.498Z,1015.67
2018-12-15T10:40:54.719Z,1015.59
2018-12-15T10:41:54.420Z,1015.65
2018-12-15T10:42:54.375Z,1015.68
2018-12-15T10:43:54.338Z,1015.73
2018-12-15T10:44:54.308Z,1015.70
2018-12-15T10:45:54.258Z,1015.72
2018-12-15T10:46:54.215Z,1015.69
2018-12-15T10:47:54.177Z,1015.65
2018-12-15T10:48:54.147Z,1015.58
2018-12-15T10:49:54.095Z,1015.56
2018-12-15T10:50:54.053Z,1015.51
2018-12-15T10:51:54.013Z,1015.45
2018-12-15T10:52:53.974Z,1015.52
2018-12-15T10:53:53.933Z,1015.41
2018-12-15T10:54:53.900Z,1015.42
2018-12-15T10:55:53.856Z,1015.40
2018-12-15T10:56:53.812Z,1015.35
2018-12-15T10:57:53.773Z,1015.37
2018-12-15T10:58:53.749Z,1015.34
2018-12-15T10:59:53.686Z,1015.29
2018-12-15T11:00:53.650Z,1015.29
2018-12-15T11:01:53.612Z,1015.25
2018-12-15T11:02:53.568Z,1015.33
2018-12-15T11:03:53.557Z,1015.21
2018-12-15T11:04:53.493Z,1015.27
2018-12-15T11:05:53.448Z,1015.31
2018-12-15T11:06:53.409Z,1015.26
2018-12-15T11:07:53.371Z,1015.32
2018-12-15T11:08:53.333Z,1015.35
2018-12-15T11:09:53.287Z,1015.29
2018-12-15T11:10:53.250Z,1015.26
2018-12-15T11:11:53.209Z,1015.19
2018-12-15T11:12:53.164Z,1015.20
2018-12-15T11:13:53.124Z,1015.14
2018-12-15T11:14:53.083Z,1015.23
2018-12-15T11:15:53.048Z,1015.15
2018-12-15T11:16:53.004Z,1015.15
2018-12-15T11:17:52.961Z,1015.18
2018-12-15T11:18:52.927Z,1015.18
2018-12-15T11:19:52.881Z,1015.04
2018-12-15T11:20:52.843Z,1015.12
2018-12-15T11:21:52.794Z,1015.06
2018-12-15T11:22:52.763Z,1015.24
2018-12-15T11:23:52.763Z,1015.07
2018-12-15T11:24:52.680Z,1015.09
2018-12-15T11:25:52.640Z,1015.14
2018-12-15T11:26:52.601Z,1015.25
2018-12-15T11:27:52.559Z,1015.10
2018-12-15T11:28:52.520Z,1015.14
2018-12-15T11:29:52.477Z,1014.98
2018-12-15T11:30:52.438Z,1015.05
2018-12-15T11:31:52.402Z,1015.04
2018-12-15T11:32:52.362Z,1014.98
2018-12-15T11:33:52.332Z,1014.96
2018-12-15T11:34:52.277Z,1014.89
2018-12-15T11:35:52.240Z,1014.93
2018-12-15T11:36:52.195Z,1014.88
2018-12-15T11:37:52.162Z,1014.85
2018-12-15T11:38:52.117Z,1014.88
2018-12-15T11:39:52.075Z,1014.77
2018-12-15T11:40:52.034Z,1014.72
2018-12-15T11:41:51.994Z,1014.78
2018-12-15T11:42:51.953Z,1014.77
2018-12-15T11:43:51.918Z,1014.68
2018-12-15T11:44:51.876Z,1014.76
2018-12-15T11:45:51.835Z,1014.73
2018-12-15T11:46:51.795Z,1014.76
2018-12-15T11:47:51.756Z,1014.74
2018-12-15T11:48:51.718Z,1014.75
2018-12-15T11:49:51.671Z,1014.71
2018-12-15T11:50:51.634Z,1014.64
2018-12-15T11:51:51.610Z,1014.58
2018-12-15T11:52:51.557Z,1014.57
2018-12-15T11:53:51.511Z,1014.51
2018-12-15T11:54:51.487Z,1014.43
2018-12-15T11:55:51.433Z,1014.45
2018-12-15T11:56:51.397Z,1014.44
2018-12-15T11:57:51.353Z,1014.44
2018-12-15T11:58:51.316Z,1014.40
2018-12-15T11:59:51.273Z,1014.36
2018-12-15T12:00:51.233Z,1014.50
2018-12-15T12:01:51.195Z,1014.40
2018-12-15T12:02:51.154Z,1014.35
2018-12-15T12:03:51.114Z,1014.38
2018-12-15T12:04:51.070Z,1014.30